Aérodrome :
LOGIN :

S'inscrire | Disclaimer

   EN    FR    IT 

 










Légende :    VFR   VFR Marginal   IFR   IFR Intensif   IFR Très Intensif
Visi : 
Plafond : 
>= 8 km
>= 3000ft
5 à 8 km
1000 à 3000 ft
1500m à 5 km
500 à 1000 ft
800 à 1500m
200 à 500 ft
< 800m
< 200 ft
Symboles :   Orages  Brouillard  Fortes neiges  Fortes précipitations  Vent > 20 kt
SIGMETs :   Divers  Orages  Givrage  Turbulence  Onde Orograph.  Cendres Volcan.






- Altitude de l'aérodrome : 183 ft
- Code IATA : HAJ


EDDV - Hanover/Langenhagen Int.

DERNIER METAR :
  • 250420Z 28011KT 9999 SCT014 12/10 Q1028 TEMPO BKN013

METARs EXPIRÉS :
  • 250350Z 28011KT 9999 -SHRA SCT013 12/10 Q1028 TEMPO BKN013
  • 250320Z 28010KT 240V300 9999 BKN013 SCT034 12/10 Q1028
  • 250250Z 28010KT 9999 BKN012 SCT034 12/10 Q1028
  • 250220Z 27011KT 9999 SCT012 SCT034 12/10 Q1027
  • 250150Z 28010KT 250V310 9999 BKN012 12/10 Q1027

TAF TAF EDDV
Valide du 25 à 00h jusqu'au 26 à 00h UTC


242300Z 2500/2524 27007KT 9999 SCT045
PROB30
TEMPO 2500/2506 BKN013
BECMG 2505/2507 32012KT
TEMPO 2506/2512 32015G25KT
BECMG 2517/2519 33006KT



MET'MAP, la Météo Aéronautique d'un coup d'oeil ! - Copyright ORBIFLY Décembre 2007 - Disclaimer

ORBIFLY MET'MAP TEAM :

Programmation & Développement : Alexandra Zaïnal
Sur une idée originale de : Baudouin d'Aumeries
Assistance à la programmation : Marc-Olivier Méhu
Soutien technique & logistique : Manuel Goepfert

Contact : metmap@orbifly.com




SOURCES & CREDITS :

   NOAA